Flight Track Log - Related Links

Times and Time Zones

All times are in EST time to prevent confusion due to time zone crossing. See the EJA929 flight status page for this flight to view local times or setup timezone preferences in your user account.

Time Position Orientation Groundspeed Altitude Reporting Facility
EST Latitude Longitude Course Direction KTS MPH feet Rate Location/Type
Mon 05:32:46 AM 40.8333 -74.1000 259° West 190 219 1,400  Level New York TRACON
Mon 05:33:46 AM 40.8167 -74.1667 252° West 204 235 5,500 4,400 Climbing New York TRACON
Mon 05:34:46 AM 40.8000 -74.2500 255° West 211 243 10,200 3,150 Climbing New York TRACON
Mon 05:35:46 AM 40.7833 -74.3167 252° West 265 305 11,800 2,138 Climbing New York TRACON
Mon 05:37:54 AM 40.7078 -74.5381 246° West 298 343 16,900 1,660 Climbing New York Center
Mon 05:38:00 AM 40.7411 -74.6414 259° West  Level FlightAware Approximate
Mon 05:38:54 AM 40.6756 -74.6347 246° West 314 361 17,000  Level New York Center
Mon 05:39:54 AM 40.6361 -74.7556 247° West 325 374 17,000 -50 Level New York Center
Mon 05:40:54 AM 40.6033 -74.8603 248° West 338 389 16,900  Descending New York Center
Mon 05:41:54 AM 40.5614 -74.9833 246° West 338 389 17,000 50 Climbing New York Center
Mon 05:42:54 AM 40.5308 -75.0825 248° West 338 389 17,000  Level New York Center
Mon 05:43:54 AM 40.4911 -75.1947 245° Southwest 338 389 17,000  Level New York Center
Mon 05:44:54 AM 40.4511 -75.3147 246° West 331 381 17,000  Level New York Center
Mon 05:45:54 AM 40.4136 -75.4269 246° West 331 381 17,000  Level New York Center
Mon 05:46:54 AM 40.3775 -75.5417 248° West 331 381 17,000  Level New York Center
Mon 05:47:54 AM 40.3422 -75.6400 245° Southwest 331 381 17,000  Level New York Center
Mon 05:48:54 AM 40.3064 -75.7489 247° West 331 381 17,000  Level New York Center
Mon 05:49:54 AM 40.2636 -75.8739 246° West 331 381 17,000  Level New York Center
Mon 05:50:54 AM 40.2253 -75.9906 247° West 348 400 17,000 -100 Level New York Center
Mon 05:51:54 AM 40.1869 -76.0992 245° Southwest 348 400 16,800 -700 Descending New York Center
Mon 05:52:54 AM 40.1533 -76.1969 246° West 341 392 15,600 -900 Descending New York Center
Mon 05:53:54 AM 40.1058 -76.3208 243° Southwest 336 387 15,000 -300 Descending New York Center
Mon 05:54:54 AM 40.0569 -76.4283 239° Southwest 347 399 15,000  Level New York Center
Mon 05:55:54 AM 40.0128 -76.5222 238° Southwest 342 394 15,000 29 Level New York Center
Mon 05:58:20 AM 39.8833 -76.7833 237° Southwest 341 392 15,100  Climbing Potomac TRACON
Mon 05:59:20 AM 39.8333 -76.9000 241° Southwest 337 388 15,000 -100 Descending Potomac TRACON
Mon 06:00:20 AM 39.7833 -77.0000 237° Southwest 340 391 14,900 -650 Descending Potomac TRACON
Mon 06:01:20 AM 39.7333 -77.1000 237° Southwest 330 380 13,700 -1,500 Descending Potomac TRACON
Mon 06:02:20 AM 39.7000 -77.2000 247° West 325 374 11,900 -1,950 Descending Potomac TRACON
Mon 06:03:20 AM 39.6333 -77.2500 210° Southwest 296 341 9,800 -2,167 Descending Potomac TRACON
Mon 06:04:08 AM 39.5667 -77.2833 201° Southwest 253 291 8,000 -1,421 Descending Potomac TRACON
Mon 06:05:14 AM 39.5000 -77.3167 201° Southwest 251 289 7,100 -476 Descending Potomac TRACON
Mon 06:06:14 AM 39.4333 -77.3500 201° Southwest 256 295 7,000 -53 Descending Potomac TRACON
Mon 06:07:08 AM 39.3667 -77.3667 191° South 271 312 7,000 -737 Level Potomac TRACON
Mon 06:08:08 AM 39.3000 -77.3667 180° South 264 304 5,600 -1,200 Descending Potomac TRACON
Mon 06:09:08 AM 39.2167 -77.3667 180° South 268 308 4,600 -1,250 Descending Potomac TRACON
Mon 06:10:08 AM 39.1500 -77.3500 169° South 271 312 3,100 -800 Descending Potomac TRACON
Mon 06:11:08 AM 39.0667 -77.3500 180° South 274 315 3,000 -100 Descending Potomac TRACON
Mon 06:12:08 AM 39.0000 -77.3500 180° South 238 274 2,900 -500 Descending Potomac TRACON
Mon 06:13:08 AM 38.9333 -77.3667 191° South 218 251 2,000 -550 Descending Potomac TRACON
Mon 06:14:08 AM 38.8833 -77.3833 195° South 185 213 1,800 -350 Descending Potomac TRACON
Mon 06:15:08 AM 38.8833 -77.4167 270° West 125 144 1,300 -500 Descending Potomac TRACON
Mon 06:16:08 AM 38.9167 -77.4333 339° North 121 139 800 -500 Descending Potomac TRACON
Mon 06:18:00 AM 38.9333 -77.4500 349° North  Level FlightAware Approximate
Mon 06:25:00 AM 38.9474 -77.4599 349° North  Level Estimated

Login

Don't have an account? Register now (free) for customized features, flight alerts, and more!